Time;durP1;ratioP1;P1;durP2;ratioP2;P2;SDS_P1;SDS_P2;PMS_P1;PMS_P2;Temp;Humidity;BMP_temperature;BMP_pressure;BME280_temperature;BME280_humidity;BME280_pressure;Samples;Min_cycle;Max_cycle;Signal;HPM_P1;HPM_P2
2023/07/29 00:00:42;;;;;;;6.20;4.10;;;;;;;21.20;73.26;99741.38;10504015;28;20278;-74
2023/07/29 00:05:44;;;;;;;6.63;3.63;;;;;;;21.31;73.15;99736.00;10503742;28;20328;-73
2023/07/29 00:10:45;;;;;;;8.10;4.38;;;;;;;21.34;73.45;99730.00;10506398;28;20055;-73
2023/07/29 00:15:46;;;;;;;6.28;4.22;;;;;;;21.25;73.14;99721.47;10504265;28;20050;-73
2023/07/29 00:20:48;;;;;;;8.38;6.22;;;;;;;21.24;73.72;99717.06;10502592;28;20072;-75
2023/07/29 00:25:49;;;;;;;7.65;6.00;;;;;;;21.31;73.70;99720.41;10500467;28;20051;-73
2023/07/29 00:30:51;;;;;;;7.53;5.30;;;;;;;21.29;73.49;99713.56;10506657;28;20040;-72
2023/07/29 00:35:52;;;;;;;6.68;5.05;;;;;;;21.28;73.79;99704.53;10500389;28;20114;-74
2023/07/29 00:40:57;;;;;;;9.70;4.78;;;;;;;21.39;73.54;99702.69;10500889;28;20074;-74
2023/07/29 00:45:59;;;;;;;5.88;4.95;;;;;;;21.35;73.71;99693.38;10504271;28;20076;-74
2023/07/29 00:51:01;;;;;;;7.78;5.65;;;;;;;21.29;73.86;99695.25;10501353;28;20090;-73
2023/07/29 00:56:03;;;;;;;7.55;5.45;;;;;;;21.34;73.43;99697.19;10501896;28;20049;-74
2023/07/29 01:01:05;;;;;;;9.55;5.78;;;;;;;21.33;73.74;99703.75;10501664;28;20044;-74
2023/07/29 01:06:12;;;;;;;7.18;5.47;;;;;;;21.36;73.49;99690.34;10501013;28;20037;-74
2023/07/29 01:11:51;;;;;;;7.65;5.95;;;;;;;21.28;73.50;99688.13;10498335;28;20119;-73
2023/07/29 01:16:56;;;;;;;7.60;6.10;;;;;;;21.32;73.51;99691.16;10498139;28;20234;-73
2023/07/29 01:21:58;;;;;;;9.48;5.65;;;;;;;21.40;73.28;99685.19;10492095;28;20434;-73
2023/07/29 01:27:01;;;;;;;7.80;6.00;;;;;;;21.44;73.13;99677.31;10517639;28;20048;-74
2023/07/29 01:32:13;;;;;;;7.53;6.20;;;;;;;21.55;73.23;99677.13;10499812;28;20252;-75
2023/07/29 01:37:22;;;;;;;9.30;6.43;;;;;;;21.46;73.47;99678.69;10500755;28;20375;-75
2023/07/29 01:42:24;;;;;;;9.27;6.32;;;;;;;21.46;73.74;99675.97;10499687;28;20108;-73
2023/07/29 01:47:29;;;;;;;9.52;6.55;;;;;;;21.37;73.68;99664.69;10502940;28;20048;-74
2023/07/29 01:52:30;;;;;;;10.18;6.90;;;;;;;21.43;73.73;99662.84;10501270;28;20408;-74
2023/07/29 01:57:32;;;;;;;9.60;6.50;;;;;;;21.44;73.61;99656.25;10496974;28;20109;-73
2023/07/29 02:02:33;;;;;;;12.57;7.38;;;;;;;21.45;73.32;99646.16;10501745;28;20071;-75
2023/07/29 02:07:35;;;;;;;14.57;7.93;;;;;;;21.39;73.52;99645.28;10499420;28;20041;-74
2023/07/29 02:12:36;;;;;;;13.60;7.65;;;;;;;21.42;73.75;99647.47;10499539;28;20115;-73
2023/07/29 02:17:42;;;;;;;14.80;8.23;;;;;;;21.46;73.70;99645.06;10495665;28;20064;-75
2023/07/29 02:22:44;;;;;;;13.30;8.17;;;;;;;21.43;73.92;99646.41;10510141;28;20051;-74
2023/07/29 02:27:45;;;;;;;12.02;7.63;;;;;;;21.43;73.65;99640.94;10506326;28;20309;-75
2023/07/29 02:32:46;;;;;;;12.25;7.10;;;;;;;21.44;73.72;99634.38;10507622;28;20052;-73
2023/07/29 02:37:48;;;;;;;8.82;6.07;;;;;;;21.46;73.42;99632.19;10510678;28;20040;-72
2023/07/29 02:42:49;;;;;;;10.63;5.30;;;;;;;21.47;73.81;99630.31;10506039;28;20071;-74
2023/07/29 02:47:51;;;;;;;8.93;4.63;;;;;;;21.50;73.83;99632.50;10503405;28;20063;-73
2023/07/29 02:52:52;;;;;;;5.07;4.18;;;;;;;21.44;73.68;99631.66;10507170;28;20056;-73
2023/07/29 02:57:54;;;;;;;4.18;3.38;;;;;;;21.40;74.01;99622.31;10507363;28;20060;-74
2023/07/29 03:02:55;;;;;;;6.63;3.65;;;;;;;21.10;75.15;99620.22;10504892;28;20090;-75
2023/07/29 03:07:57;;;;;;;8.27;3.30;;;;;;;20.79;75.94;99614.53;10503868;28;20294;-75
2023/07/29 03:12:59;;;;;;;6.85;3.95;;;;;;;20.66;76.53;99602.16;10509082;28;20032;-76
2023/07/29 03:18:00;;;;;;;6.32;3.15;;;;;;;20.62;77.18;99592.84;10505403;28;20059;-77
2023/07/29 03:23:02;;;;;;;8.02;3.40;;;;;;;20.56;76.81;99594.66;10504916;28;20036;-75
2023/07/29 03:28:04;;;;;;;8.95;4.10;;;;;;;20.59;77.36;99596.91;10504726;28;20108;-76
2023/07/29 03:33:05;;;;;;;7.63;4.03;;;;;;;20.63;77.70;99593.66;10508382;28;20229;-76
2023/07/29 03:38:07;;;;;;;9.18;3.85;;;;;;;20.55;77.52;99589.47;10504010;28;20079;-75
2023/07/29 03:43:08;;;;;;;8.52;3.80;;;;;;;20.53;78.01;99588.91;10502339;28;20060;-75
2023/07/29 03:48:10;;;;;;;4.60;3.30;;;;;;;20.53;77.61;99594.38;10507046;28;20296;-72
2023/07/29 03:53:11;;;;;;;6.38;3.72;;;;;;;20.55;77.51;99595.75;10504300;28;20108;-72
2023/07/29 03:58:13;;;;;;;5.50;3.88;;;;;;;20.47;78.34;99590.75;10491977;28;20064;-72
2023/07/29 04:03:14;;;;;;;8.65;4.80;;;;;;;20.55;78.29;99578.53;10503424;28;20044;-72
2023/07/29 04:08:16;;;;;;;7.35;5.03;;;;;;;20.62;77.82;99576.47;10507134;28;20060;-73
2023/07/29 04:13:17;;;;;;;9.55;5.88;;;;;;;20.64;77.72;99590.66;10503553;28;20287;-74
2023/07/29 04:18:18;;;;;;;7.88;5.43;;;;;;;20.57;78.17;99584.56;10501575;28;20111;-72
2023/07/29 04:23:20;;;;;;;8.23;6.65;;;;;;;20.73;78.02;99591.81;10507719;28;20068;-72
2023/07/29 04:28:21;;;;;;;12.38;5.82;;;;;;;20.78;77.89;99586.41;10503120;28;20125;-72
2023/07/29 04:33:23;;;;;;;12.95;8.63;;;;;;;20.87;77.63;99573.06;10500180;28;20044;-73
2023/07/29 04:38:30;;;;;;;8.15;5.97;;;;;;;20.98;77.57;99569.31;10499797;28;20048;-73
2023/07/29 04:43:32;;;;;;;9.88;6.55;;;;;;;21.03;77.21;99567.69;10502110;28;20140;-72
2023/07/29 04:48:34;;;;;;;9.27;7.53;;;;;;;21.01;78.06;99567.97;10500483;28;20305;-72
2023/07/29 04:53:36;;;;;;;11.25;7.57;;;;;;;20.92;77.94;99575.84;10502673;28;20076;-71
2023/07/29 04:58:38;;;;;;;8.05;6.80;;;;;;;20.88;78.35;99573.91;10505026;28;20052;-73
2023/07/29 05:03:39;;;;;;;13.02;8.15;;;;;;;20.93;77.78;99565.72;10500728;28;20064;-72
2023/07/29 05:08:41;;;;;;;10.82;7.18;;;;;;;20.94;78.09;99557.28;10499558;28;20120;-71
2023/07/29 05:13:43;;;;;;;10.30;6.97;;;;;;;20.92;77.85;99559.44;10501308;28;20036;-72
2023/07/29 05:18:45;;;;;;;9.60;7.78;;;;;;;20.87;78.28;99559.41;10502013;28;20105;-72
2023/07/29 05:23:46;;;;;;;14.50;8.43;;;;;;;20.85;78.40;99568.94;10500434;28;20107;-73
2023/07/29 05:28:48;;;;;;;12.75;8.98;;;;;;;20.82;78.43;99564.03;10500409;28;20068;-73
2023/07/29 05:33:49;;;;;;;14.23;8.73;;;;;;;20.91;77.78;99570.63;10504325;28;20109;-72
2023/07/29 05:38:52;;;;;;;12.65;8.77;;;;;;;20.89;77.91;99576.38;10500008;28;20048;-72
2023/07/29 05:43:53;;;;;;;13.95;9.30;;;;;;;20.87;78.26;99580.44;10499573;28;20040;-72
2023/07/29 05:48:55;;;;;;;13.30;9.63;;;;;;;20.94;78.19;99586.50;10501074;28;20108;-73
2023/07/29 05:53:56;;;;;;;14.57;10.48;;;;;;;20.87;77.56;99602.28;10506351;28;20300;-74
2023/07/29 05:58:57;;;;;;;13.60;9.90;;;;;;;20.86;77.74;99597.94;10508332;28;20283;-74
2023/07/29 06:03:59;;;;;;;14.52;10.27;;;;;;;20.95;77.42;99604.53;10507108;28;20048;-72
2023/07/29 06:09:00;;;;;;;13.13;9.77;;;;;;;21.02;77.69;99616.06;10517742;28;20044;-72
2023/07/29 06:14:01;;;;;;;17.17;9.90;;;;;;;21.03;77.81;99597.75;10503983;28;20337;-73
2023/07/29 06:19:03;;;;;;;14.15;10.07;;;;;;;21.11;77.60;99605.44;10506883;28;20055;-72
2023/07/29 06:24:04;;;;;;;23.38;11.18;;;;;;;21.08;77.51;99614.19;10508184;28;20124;-73
2023/07/29 06:29:07;;;;;;;15.43;10.20;;;;;;;21.08;77.47;99617.75;10511014;28;20576;-72
2023/07/29 06:34:08;;;;;;;18.08;10.80;;;;;;;20.87;78.26;99621.41;10506581;28;20549;-73
2023/07/29 06:39:10;;;;;;;17.27;11.55;;;;;;;20.67;78.41;99622.91;10504951;28;20051;-72
2023/07/29 06:44:11;;;;;;;17.73;11.52;;;;;;;20.60;79.01;99587.63;10509387;28;20048;-69
2023/07/29 06:49:13;;;;;;;16.25;10.18;;;;;;;20.44;79.22;99610.41;10504638;28;20044;-69
2023/07/29 06:54:16;;;;;;;19.20;10.73;;;;;;;20.31;80.21;99610.81;10506702;28;20039;-69
2023/07/29 06:59:18;;;;;;;15.65;9.30;;;;;;;20.30;80.11;99611.91;10503631;28;20067;-71
2023/07/29 07:04:19;;;;;;;16.70;9.52;;;;;;;20.38;79.89;99617.72;10514660;28;20248;-72
2023/07/29 07:09:21;;;;;;;13.27;9.18;;;;;;;20.34;79.80;99619.31;10505992;28;20111;-69
2023/07/29 07:14:22;;;;;;;13.05;8.80;;;;;;;20.34;79.87;99623.94;10504504;28;20111;-70
2023/07/29 07:19:23;;;;;;;13.60;7.57;;;;;;;20.21;80.40;99598.72;10508504;28;20067;-70
2023/07/29 07:24:25;;;;;;;9.90;7.40;;;;;;;20.29;80.71;99594.69;10504894;28;20047;-69
2023/07/29 07:29:26;;;;;;;7.72;6.18;;;;;;;20.26;81.19;99622.53;10505319;28;20063;-71
2023/07/29 07:34:28;;;;;;;8.40;6.45;;;;;;;20.44;80.91;99617.75;10507041;28;20068;-71
2023/07/29 07:39:29;;;;;;;12.13;7.18;;;;;;;20.43;81.41;99644.25;10508498;28;20107;-71
2023/07/29 07:44:31;;;;;;;9.90;7.03;;;;;;;20.51;81.29;99648.41;10513248;28;20040;-72
2023/07/29 07:49:32;;;;;;;10.27;7.05;;;;;;;20.47;81.59;99648.09;10505357;28;20044;-71
2023/07/29 07:54:34;;;;;;;16.30;9.77;;;;;;;20.46;82.04;99642.88;10505407;28;20056;-71
2023/07/29 07:59:35;;;;;;;12.30;9.35;;;;;;;20.58;81.80;99644.38;10504045;28;20048;-71
2023/07/29 08:04:36;;;;;;;12.77;9.93;;;;;;;20.70;81.35;99643.44;10501407;28;20048;-72
2023/07/29 08:09:38;;;;;;;11.32;9.13;;;;;;;20.74;81.56;99650.84;10500232;28;20059;-72
2023/07/29 08:14:39;;;;;;;12.82;9.82;;;;;;;20.84;81.00;99652.00;10507106;28;20159;-71
2023/07/29 08:19:40;;;;;;;10.77;9.18;;;;;;;21.06;81.56;99651.91;10501111;28;20314;-71
2023/07/29 08:24:42;;;;;;;12.50;9.95;;;;;;;21.27;81.46;99644.63;10501625;28;20336;-71
2023/07/29 08:29:44;;;;;;;15.18;8.57;;;;;;;21.38;81.35;99652.63;10506762;28;20053;-73
2023/07/29 08:34:45;;;;;;;9.73;7.88;;;;;;;21.61;81.52;99645.13;10500385;28;20057;-72
2023/07/29 08:39:47;;;;;;;7.18;6.47;;;;;;;21.72;81.10;99644.09;10508121;28;20119;-72
2023/07/29 08:44:49;;;;;;;5.25;4.57;;;;;;;21.87;80.93;99637.03;10500623;28;20104;-72
2023/07/29 08:49:52;;;;;;;6.75;4.85;;;;;;;22.02;80.50;99636.25;10503050;28;20120;-73
2023/07/29 08:54:54;;;;;;;3.78;3.45;;;;;;;22.22;80.10;99640.97;10500324;28;20055;-72
2023/07/29 08:59:56;;;;;;;3.55;3.25;;;;;;;22.31;79.90;99637.44;10499270;28;20048;-74
2023/07/29 09:04:57;;;;;;;3.65;2.10;;;;;;;22.61;79.37;99641.34;10505648;28;20103;-73
2023/07/29 09:09:59;;;;;;;2.65;2.10;;;;;;;22.77;78.94;99644.91;10501785;28;20431;-73
2023/07/29 09:15:00;;;;;;;3.35;1.33;;;;;;;23.04;78.26;99630.91;10499497;28;20286;-73
2023/07/29 09:20:02;;;;;;;1.70;0.93;;;;;;;23.15;77.68;99629.00;10500513;28;20108;-74
2023/07/29 09:25:04;;;;;;;2.08;0.85;;;;;;;23.50;76.36;99628.06;10505319;28;20100;-71
2023/07/29 09:30:06;;;;;;;0.90;0.73;;;;;;;23.47;75.96;99631.38;10499666;28;20345;-72
2023/07/29 09:35:12;;;;;;;3.65;0.90;;;;;;;23.67;74.96;99624.16;10500830;28;20111;-72
2023/07/29 09:40:16;;;;;;;1.95;0.50;;;;;;;23.75;73.57;99624.38;10507638;28;20284;-71
2023/07/29 09:45:24;;;;;;;0.70;0.60;;;;;;;24.09;73.01;99620.97;10485695;28;20340;-73
2023/07/29 09:50:27;;;;;;;1.15;0.52;;;;;;;24.44;71.83;99618.25;10498427;28;20296;-72
2023/07/29 09:55:29;;;;;;;1.10;0.47;;;;;;;24.42;71.56;99625.97;10500125;28;20060;-74
2023/07/29 10:00:31;;;;;;;0.55;0.43;;;;;;;24.47;70.63;99623.19;10503637;28;20100;-73
2023/07/29 10:05:34;;;;;;;0.30;0.30;;;;;;;24.58;70.08;99624.75;10498534;28;20052;-72
2023/07/29 10:10:36;;;;;;;0.50;0.30;;;;;;;24.65;69.38;99616.22;10500874;28;20048;-72
2023/07/29 10:15:37;;;;;;;0.93;0.20;;;;;;;24.64;68.96;99612.63;10497671;28;20830;-72
2023/07/29 10:20:40;;;;;;;0.30;0.20;;;;;;;24.78;68.89;99609.22;10504118;28;20117;-73
2023/07/29 10:25:47;;;;;;;0.20;0.20;;;;;;;24.90;67.76;99609.66;10498454;28;20053;-72
2023/07/29 10:30:49;;;;;;;0.73;0.20;;;;;;;25.32;66.03;99597.97;10500122;28;20048;-72
2023/07/29 10:35:53;;;;;;;1.45;0.30;;;;;;;25.78;65.49;99596.56;10501821;28;20118;-72
2023/07/29 10:40:59;;;;;;;0.52;0.20;;;;;;;25.89;65.67;99591.78;10497320;28;20036;-72
2023/07/29 10:46:20;;;;;;;0.30;0.22;;;;;;;26.21;64.64;99593.81;10493086;28;20048;-71
2023/07/29 10:51:35;;;;;;;2.95;0.30;;;;;;;26.49;63.53;99611.25;10506106;28;20368;-72
2023/07/29 10:56:41;;;;;;;0.30;0.20;;;;;;;26.41;62.36;99608.38;10504754;28;20570;-72
2023/07/29 11:01:51;;;;;;;2.17;0.27;;;;;;;26.39;62.20;99605.09;10505578;28;20048;-72
2023/07/29 11:07:22;;;;;;;1.08;0.30;;;;;;;26.41;61.72;99600.13;10505282;28;20596;-73
2023/07/29 11:12:38;;;;;;;1.05;0.40;;;;;;;26.05;61.39;99584.13;10504565;28;20120;-74
2023/07/29 11:17:42;;;;;;;2.10;0.20;;;;;;;25.91;60.79;99589.56;10516402;28;20044;-71
2023/07/29 11:22:44;;;;;;;1.45;0.30;;;;;;;26.07;60.08;99592.91;10505580;28;20104;-72
2023/07/29 11:27:46;;;;;;;0.50;0.30;;;;;;;26.09;58.94;99593.44;10504948;28;20044;-72
2023/07/29 11:32:47;;;;;;;0.60;0.20;;;;;;;26.38;56.60;99581.41;10505816;28;20063;-72
2023/07/29 11:37:51;;;;;;;0.93;0.30;;;;;;;26.75;55.81;99582.47;10509198;28;20044;-72
2023/07/29 11:42:54;;;;;;;0.57;0.20;;;;;;;26.88;55.95;99582.50;10501513;28;20289;-72
2023/07/29 11:47:55;;;;;;;2.45;0.32;;;;;;;27.35;55.53;99585.25;10503780;28;20051;-71
2023/07/29 11:52:57;;;;;;;0.63;0.20;;;;;;;27.79;55.09;99569.97;10507233;28;20052;-72
2023/07/29 11:58:02;;;;;;;1.02;0.20;;;;;;;28.02;52.91;99562.56;10503780;28;20048;-72
2023/07/29 12:03:04;;;;;;;2.03;0.40;;;;;;;27.86;52.46;99564.84;10502685;28;20282;-71
2023/07/29 12:08:07;;;;;;;0.30;0.13;;;;;;;28.09;51.03;99567.66;10502539;28;20360;-73
2023/07/29 12:13:09;;;;;;;0.38;0.20;;;;;;;27.98;49.98;99569.00;10506968;28;20059;-71
2023/07/29 12:18:12;;;;;;;0.20;0.13;;;;;;;28.37;48.71;99556.50;10502489;28;20120;-72
2023/07/29 12:23:13;;;;;;;1.38;0.20;;;;;;;28.63;47.61;99559.44;10506263;28;20043;-71
2023/07/29 12:28:15;;;;;;;0.90;0.25;;;;;;;28.32;46.79;99565.72;10512064;28;20055;-72
2023/07/29 12:33:36;;;;;;;0.88;0.40;;;;;;;28.35;46.80;99555.97;10502543;28;20054;-73
2023/07/29 12:38:37;;;;;;;0.40;0.30;;;;;;;28.84;46.75;99551.44;10498684;28;20051;-72
2023/07/29 12:43:39;;;;;;;2.35;0.38;;;;;;;28.72;45.78;99540.97;10498189;28;20048;-71
2023/07/29 12:48:40;;;;;;;0.40;0.20;;;;;;;29.03;45.27;99543.72;10505919;28;20309;-73
2023/07/29 12:53:41;;;;;;;0.30;0.20;;;;;;;29.04;45.16;99550.06;10497701;28;20128;-72
2023/07/29 12:58:43;;;;;;;0.70;0.40;;;;;;;29.35;44.15;99558.34;10502255;28;20283;-73
2023/07/29 13:03:45;;;;;;;1.02;0.50;;;;;;;29.13;45.28;99555.66;10504805;28;20344;-72
2023/07/29 13:08:47;;;;;;;0.50;0.30;;;;;;;28.68;45.61;99549.06;10506790;28;20059;-73
2023/07/29 13:13:49;;;;;;;0.50;0.20;;;;;;;28.31;46.16;99549.44;10497662;28;20119;-72
2023/07/29 13:18:50;;;;;;;1.48;0.40;;;;;;;28.24;45.97;99559.00;10501342;28;20108;-72
2023/07/29 13:23:52;;;;;;;1.85;0.30;;;;;;;27.98;45.71;99563.50;10503798;28;20059;-71
2023/07/29 13:28:54;;;;;;;1.88;0.30;;;;;;;27.93;45.32;99558.91;10501078;28;20040;-72
2023/07/29 13:33:56;;;;;;;0.73;0.22;;;;;;;28.30;44.23;99548.66;10507192;28;20119;-72
2023/07/29 13:38:57;;;;;;;0.52;0.30;;;;;;;29.06;43.00;99553.31;10503887;28;20357;-72
2023/07/29 13:43:59;;;;;;;1.30;0.50;;;;;;;28.86;42.25;99546.41;10501146;28;20052;-72
2023/07/29 13:49:01;;;;;;;0.60;0.30;;;;;;;28.91;41.94;99554.56;10501313;28;20143;-72
2023/07/29 13:54:02;;;;;;;1.25;0.30;;;;;;;29.50;40.81;99551.53;10499738;28;20103;-72
2023/07/29 13:59:04;;;;;;;1.45;0.20;;;;;;;29.99;40.60;99552.28;10501179;28;20056;-70
2023/07/29 14:04:05;;;;;;;0.55;0.25;;;;;;;30.07;39.62;99549.84;10499460;28;20040;-73
2023/07/29 14:09:06;;;;;;;0.38;0.30;;;;;;;30.40;38.27;99555.72;10497241;28;20052;-73
2023/07/29 14:14:09;;;;;;;0.22;0.20;;;;;;;30.88;37.82;99554.63;10500387;28;20511;-72
2023/07/29 14:19:10;;;;;;;1.30;0.20;;;;;;;31.09;36.64;99562.25;10517763;28;20416;-72
2023/07/29 14:24:11;;;;;;;0.60;0.30;;;;;;;30.21;36.99;99567.13;10507884;28;20313;-72
2023/07/29 14:29:13;;;;;;;0.50;0.30;;;;;;;29.74;38.14;99559.44;10503078;28;20314;-72
2023/07/29 14:34:14;;;;;;;1.58;0.50;;;;;;;29.74;38.26;99565.00;10507832;28;20058;-72
2023/07/29 14:39:16;;;;;;;0.57;0.40;;;;;;;29.70;38.10;99552.06;10505379;28;20079;-73
2023/07/29 14:44:17;;;;;;;0.40;0.20;;;;;;;30.10;37.40;99543.66;10504987;28;20040;-72
2023/07/29 14:49:18;;;;;;;0.73;0.50;;;;;;;30.16;35.72;99542.34;10506879;28;20124;-73
2023/07/29 14:54:20;;;;;;;0.40;0.30;;;;;;;30.96;34.89;99545.47;10501569;28;20114;-69
2023/07/29 14:59:21;;;;;;;0.30;0.20;;;;;;;30.59;34.16;99545.09;10505052;28;20044;-73
2023/07/29 15:04:23;;;;;;;1.55;0.40;;;;;;;30.76;34.13;99554.50;10504763;28;20324;-73
2023/07/29 15:09:26;;;;;;;2.15;0.20;;;;;;;30.99;33.58;99544.81;10505592;28;20115;-72
2023/07/29 15:14:28;;;;;;;0.65;0.35;;;;;;;31.25;33.29;99538.31;10506553;28;20368;-71
2023/07/29 15:19:29;;;;;;;0.45;0.20;;;;;;;30.73;33.60;99544.03;10504425;28;20123;-72
2023/07/29 15:24:30;;;;;;;0.50;0.30;;;;;;;30.94;33.32;99538.63;10503058;28;20040;-71
2023/07/29 15:29:32;;;;;;;0.30;0.20;;;;;;;30.59;33.77;99550.63;10512403;28;20127;-72
2023/07/29 15:34:34;;;;;;;0.52;0.40;;;;;;;30.53;33.97;99549.19;10504534;28;20288;-72
2023/07/29 15:39:35;;;;;;;0.50;0.30;;;;;;;30.12;34.00;99547.72;10503297;28;20357;-71
2023/07/29 15:44:37;;;;;;;0.30;0.30;;;;;;;29.65;34.97;99542.75;10503447;28;20052;-72
2023/07/29 15:49:38;;;;;;;0.80;0.30;;;;;;;29.44;35.21;99541.75;10502422;28;20048;-71
2023/07/29 15:54:41;;;;;;;0.38;0.30;;;;;;;29.30;35.16;99530.78;10503894;28;20046;-71
2023/07/29 15:59:42;;;;;;;0.60;0.40;;;;;;;30.04;33.78;99546.59;10503722;28;20075;-71
2023/07/29 16:04:44;;;;;;;1.75;0.30;;;;;;;29.72;34.27;99539.56;10503607;28;20282;-70
2023/07/29 16:09:45;;;;;;;0.88;0.30;;;;;;;29.45;35.00;99541.44;10502231;28;20106;-71
2023/07/29 16:14:47;;;;;;;0.82;0.30;;;;;;;29.14;35.77;99535.16;10500066;28;20678;-72
2023/07/29 16:19:58;;;;;;;0.88;0.30;;;;;;;28.96;36.13;99534.25;10505118;28;20059;-71
2023/07/29 16:25:00;;;;;;;0.50;0.40;;;;;;;28.75;36.48;99543.06;10502529;28;20036;-72
2023/07/29 16:30:02;;;;;;;2.22;0.30;;;;;;;28.82;36.27;99534.34;10502524;28;20111;-72
2023/07/29 16:35:04;;;;;;;0.60;0.30;;;;;;;29.22;35.23;99551.78;10505486;28;20078;-71
2023/07/29 16:40:06;;;;;;;0.40;0.30;;;;;;;29.81;34.79;99545.09;10501365;28;20040;-71
2023/07/29 16:45:09;;;;;;;1.23;0.35;;;;;;;30.39;33.54;99537.44;10501828;28;20045;-72
2023/07/29 16:50:10;;;;;;;0.70;0.20;;;;;;;30.77;33.22;99539.50;10502901;28;20052;-71
2023/07/29 16:55:12;;;;;;;0.50;0.30;;;;;;;30.91;33.54;99548.44;10508908;28;20028;-71
2023/07/29 17:00:13;;;;;;;1.17;0.30;;;;;;;30.14;34.13;99553.75;10495271;28;20064;-72
2023/07/29 17:05:15;;;;;;;0.50;0.38;;;;;;;30.31;34.10;99546.59;10497623;28;20380;-71
2023/07/29 17:10:16;;;;;;;0.55;0.30;;;;;;;29.98;34.22;99553.44;10502373;28;20223;-71
2023/07/29 17:15:18;;;;;;;0.88;0.30;;;;;;;29.89;35.17;99552.59;10499527;28;20104;-72
2023/07/29 17:20:20;;;;;;;0.85;0.30;;;;;;;29.90;34.54;99554.25;10498307;28;20068;-73
2023/07/29 17:25:25;;;;;;;0.45;0.30;;;;;;;29.54;35.15;99548.94;10493345;28;20052;-72
2023/07/29 17:30:27;;;;;;;0.25;0.22;;;;;;;29.46;34.88;99551.38;10498637;28;20071;-72
2023/07/29 17:35:30;;;;;;;1.25;0.77;;;;;;;29.34;35.54;99556.69;10500246;28;20044;-73
2023/07/29 17:40:31;;;;;;;1.23;0.30;;;;;;;29.44;35.58;99561.97;10498346;28;20079;-72
2023/07/29 17:45:32;;;;;;;4.32;0.40;;;;;;;29.70;35.56;99547.34;10499407;28;20044;-70
2023/07/29 17:50:34;;;;;;;1.92;0.30;;;;;;;29.68;35.78;99546.88;10503922;28;20060;-71
2023/07/29 17:55:37;;;;;;;0.40;0.40;;;;;;;30.14;35.27;99548.22;10513249;28;20110;-71
2023/07/29 18:00:39;;;;;;;0.85;0.30;;;;;;;29.90;35.17;99551.47;10521430;28;20048;-71
2023/07/29 18:05:40;;;;;;;0.30;0.20;;;;;;;29.70;34.97;99547.34;10513278;28;20055;-72
2023/07/29 18:10:42;;;;;;;1.58;0.30;;;;;;;29.16;35.43;99558.59;10514774;28;20111;-72
2023/07/29 18:15:44;;;;;;;0.30;0.28;;;;;;;28.72;36.67;99565.03;10509240;28;20045;-71
2023/07/29 18:20:48;;;;;;;0.40;0.38;;;;;;;28.43;36.36;99567.09;10515289;28;20123;-71
2023/07/29 18:25:52;;;;;;;0.77;0.30;;;;;;;28.16;37.38;99581.03;10514826;28;20071;-72
2023/07/29 18:30:54;;;;;;;0.50;0.20;;;;;;;27.83;37.81;99573.72;10515171;28;20044;-72
2023/07/29 18:35:56;;;;;;;0.52;0.30;;;;;;;27.54;37.86;99571.31;10515471;28;20703;-71
2023/07/29 18:40:57;;;;;;;0.35;0.22;;;;;;;27.29;38.70;99586.44;10505942;28;20056;-71
2023/07/29 18:45:59;;;;;;;0.68;0.40;;;;;;;27.16;38.92;99587.25;10512355;28;20060;-71
2023/07/29 18:51:01;;;;;;;3.10;0.30;;;;;;;26.99;39.49;99596.94;10512783;28;20048;-70
2023/07/29 18:56:02;;;;;;;1.20;0.40;;;;;;;26.89;39.46;99605.38;10512295;28;20051;-72
2023/07/29 19:01:04;;;;;;;1.30;0.28;;;;;;;26.69;39.97;99603.81;10508115;28;20040;-71
2023/07/29 19:06:05;;;;;;;0.38;0.28;;;;;;;26.51;40.54;99619.25;10504325;28;20112;-71
2023/07/29 19:11:07;;;;;;;1.75;0.35;;;;;;;26.27;41.25;99613.84;10503818;28;20282;-71
2023/07/29 19:16:09;;;;;;;0.40;0.30;;;;;;;26.10;41.42;99626.16;10512693;28;20040;-72
2023/07/29 19:21:11;;;;;;;0.68;0.38;;;;;;;26.00;41.61;99626.31;10509477;28;20056;-73
2023/07/29 19:26:15;;;;;;;1.77;0.50;;;;;;;26.01;41.98;99638.19;10506646;28;20060;-74
2023/07/29 19:31:17;;;;;;;1.17;0.50;;;;;;;25.88;42.51;99634.97;10502297;28;20055;-74
2023/07/29 19:36:19;;;;;;;0.45;0.38;;;;;;;25.83;42.75;99637.81;10501666;28;20340;-74
2023/07/29 19:41:20;;;;;;;0.60;0.47;;;;;;;25.68;42.82;99646.28;10501492;28;20400;-75
2023/07/29 19:46:22;;;;;;;0.70;0.47;;;;;;;25.57;43.21;99644.75;10503740;28;20392;-74
2023/07/29 19:51:38;;;;;;;1.40;0.60;;;;;;;25.64;43.68;99645.22;10500800;28;20053;-74
2023/07/29 19:56:40;;;;;;;1.60;0.68;;;;;;;25.52;44.15;99637.38;10499827;28;20107;-73
2023/07/29 20:01:42;;;;;;;3.58;0.90;;;;;;;25.42;44.89;99637.50;10504062;28;20252;-73
2023/07/29 20:06:43;;;;;;;1.33;0.93;;;;;;;25.13;45.62;99646.56;10503829;28;20036;-75
2023/07/29 20:11:45;;;;;;;3.17;1.15;;;;;;;25.03;46.09;99641.16;10503723;28;20115;-76
2023/07/29 20:16:46;;;;;;;1.40;1.00;;;;;;;24.92;46.30;99635.75;10504037;28;20091;-74
2023/07/29 20:21:47;;;;;;;2.70;0.88;;;;;;;24.79;47.01;99652.09;10499463;28;20508;-74
2023/07/29 20:26:49;;;;;;;4.50;0.90;;;;;;;24.65;47.71;99646.44;10502558;28;20103;-74
2023/07/29 20:31:51;;;;;;;2.80;0.70;;;;;;;24.49;47.94;99653.94;10503328;28;23240;-75
2023/07/29 20:36:52;;;;;;;2.33;0.60;;;;;;;24.39;48.51;99646.59;10502511;28;20110;-74
2023/07/29 20:41:54;;;;;;;1.95;1.23;;;;;;;24.41;48.05;99652.63;10500217;28;20121;-73
2023/07/29 20:46:55;;;;;;;3.63;0.70;;;;;;;24.45;48.17;99647.38;10494951;28;20037;-73
2023/07/29 20:51:57;;;;;;;1.75;0.90;;;;;;;24.41;48.53;99643.53;10503017;28;20356;-72
2023/07/29 20:56:58;;;;;;;2.08;1.10;;;;;;;24.08;50.75;99665.19;10499066;28;20049;-73
2023/07/29 21:01:59;;;;;;;4.00;2.08;;;;;;;22.56;57.50;99682.41;10501550;28;20108;-75
2023/07/29 21:07:02;;;;;;;4.32;2.22;;;;;;;21.31;62.02;99697.72;10500549;28;20040;-75
2023/07/29 21:12:04;;;;;;;1.45;0.75;;;;;;;20.55;64.55;99688.59;10496250;28;20060;-72
2023/07/29 21:17:06;;;;;;;3.85;1.20;;;;;;;20.21;66.52;99688.78;10500122;28;20075;-71
2023/07/29 21:22:07;;;;;;;2.40;1.58;;;;;;;20.43;66.27;99678.91;10501740;28;20055;-73
2023/07/29 21:27:09;;;;;;;1.45;0.95;;;;;;;20.59;66.64;99673.34;10501023;28;20109;-71
2023/07/29 21:32:11;;;;;;;6.68;1.23;;;;;;;20.64;67.00;99679.97;10501294;28;20396;-72
2023/07/29 21:37:12;;;;;;;2.38;1.50;;;;;;;20.69;68.06;99686.28;10496695;28;20284;-72
2023/07/29 21:42:26;;;;;;;2.85;1.45;;;;;;;20.76;68.60;99695.09;10481278;28;20099;-73
2023/07/29 21:47:27;;;;;;;2.75;1.98;;;;;;;20.79;69.60;99707.41;10498134;28;20041;-74
2023/07/29 21:52:28;;;;;;;5.18;1.50;;;;;;;20.80;69.50;99698.97;10500669;28;20060;-73
2023/07/29 21:57:30;;;;;;;2.95;1.23;;;;;;;20.84;69.67;99703.91;10497443;28;20075;-74
2023/07/29 22:02:32;;;;;;;2.50;1.15;;;;;;;20.71;70.94;99711.44;10494166;28;20063;-74
2023/07/29 22:07:33;;;;;;;5.20;2.30;;;;;;;20.83;71.18;99721.38;10501112;28;20325;-72
2023/07/29 22:12:35;;;;;;;4.15;2.10;;;;;;;20.93;71.10;99721.47;10496694;28;20378;-74
2023/07/29 22:17:37;;;;;;;3.95;1.95;;;;;;;20.95;71.55;99720.13;10513926;28;20052;-73
2023/07/29 22:22:38;;;;;;;3.00;2.28;;;;;;;20.99;72.31;99710.34;10498550;28;20054;-73
2023/07/29 22:27:41;;;;;;;3.40;2.67;;;;;;;21.02;72.26;99719.09;10493378;28;20090;-73
2023/07/29 22:32:44;;;;;;;4.38;2.92;;;;;;;21.06;72.49;99707.38;10498140;28;20124;-74
2023/07/29 22:37:46;;;;;;;5.28;3.55;;;;;;;21.10;73.11;99703.03;10503238;28;20040;-73
2023/07/29 22:42:47;;;;;;;4.00;2.70;;;;;;;21.17;73.15;99695.44;10505225;28;20040;-74
2023/07/29 22:47:49;;;;;;;3.30;2.10;;;;;;;21.10;73.18;99703.03;10505095;28;20048;-73
2023/07/29 22:52:50;;;;;;;3.53;2.17;;;;;;;21.06;73.46;99695.63;10501434;28;20036;-74
2023/07/29 22:57:53;;;;;;;5.13;2.25;;;;;;;21.08;73.53;99697.00;10505514;28;20063;-72
2023/07/29 23:02:54;;;;;;;5.65;2.60;;;;;;;21.10;73.65;99697.56;10507753;28;20052;-72
2023/07/29 23:07:56;;;;;;;4.30;2.17;;;;;;;21.08;74.03;99696.19;10504832;28;20420;-74
2023/07/29 23:12:57;;;;;;;3.35;2.00;;;;;;;21.04;74.13;99700.53;10506729;28;20044;-73
2023/07/29 23:18:00;;;;;;;2.88;1.83;;;;;;;20.95;74.21;99701.00;10501999;28;20096;-73
2023/07/29 23:23:03;;;;;;;3.33;1.90;;;;;;;20.93;74.05;99711.38;10508145;28;20071;-73